Time;durP1;ratioP1;P1;durP2;ratioP2;P2;SDS_P1;SDS_P2;PMS_P1;PMS_P2;Temp;Humidity;BMP_temperature;BMP_pressure;BME280_temperature;BME280_humidity;BME280_pressure;Samples;Min_cycle;Max_cycle;Signal;HPM_P1;HPM_P2
2022/12/17 13:06:41;;;;;;;107.68;58.80;;;;;;;-1.81;100.00;102448.22;6144943;23;20548;-90
2022/12/17 13:09:15;;;;;;;101.10;56.92;;;;;;;-1.87;100.00;102457.63;6144448;23;20018;-93
2022/12/17 13:11:46;;;;;;;101.55;57.22;;;;;;;-1.99;100.00;102458.19;6147914;23;20009;-90
2022/12/17 13:14:22;;;;;;;100.07;57.47;;;;;;;-2.03;100.00;102440.69;6123867;23;20009;-91
2022/12/17 13:16:54;;;;;;;104.03;57.33;;;;;;;-2.06;100.00;102445.81;6145527;23;20017;-92
2022/12/17 13:19:37;;;;;;;103.47;56.40;;;;;;;-2.05;100.00;102458.91;6143699;23;20013;-90
2022/12/17 13:22:08;;;;;;;101.38;56.58;;;;;;;-2.07;100.00;102449.28;6145771;23;20002;-91
2022/12/17 13:24:33;;;;;;;104.32;57.30;;;;;;;-2.24;100.00;102432.28;6147894;23;20009;-92
2022/12/17 13:26:59;;;;;;;108.50;59.80;;;;;;;-2.18;100.00;102448.97;6144230;23;20036;-87
2022/12/17 13:29:31;;;;;;;109.80;60.45;;;;;;;-2.24;100.00;102451.41;6143721;23;20360;-91
2022/12/17 13:32:02;;;;;;;106.25;57.83;;;;;;;-2.19;100.00;102447.22;6121802;23;20534;-90
2022/12/17 13:35:20;;;;;;;95.53;53.28;;;;;;;-2.18;100.00;102441.13;6145737;23;20040;-89
2022/12/17 13:37:53;;;;;;;96.97;52.25;;;;;;;-2.27;100.00;102441.78;6144976;23;20064;-90
2022/12/17 13:40:39;;;;;;;88.68;50.30;;;;;;;-2.35;100.00;102431.97;6174490;23;20337;-90
2022/12/17 13:43:16;;;;;;;88.22;49.17;;;;;;;-2.40;100.00;102417.94;6174037;23;20044;-88
2022/12/17 13:45:42;;;;;;;86.93;48.17;;;;;;;-2.40;100.00;102441.41;6177248;23;20343;-96
2022/12/17 13:48:19;;;;;;;87.95;47.20;;;;;;;-2.43;100.00;102431.75;6173251;23;20068;-92
2022/12/17 13:50:53;;;;;;;92.22;49.67;;;;;;;-2.53;100.00;102441.06;6144602;23;20033;-93
2022/12/17 13:53:19;;;;;;;91.38;49.70;;;;;;;-2.70;100.00;102436.22;6146007;23;20025;-90
2022/12/17 13:55:53;;;;;;;89.95;49.03;;;;;;;-2.69;100.00;102446.66;6146610;23;20013;-91
2022/12/17 13:58:28;;;;;;;;;;;;;;;-2.53;100.00;102448.88;6146871;23;20029;-90
2022/12/17 14:01:07;;;;;;;92.72;49.80;;;;;;;-2.69;100.00;102449.28;6147690;23;19977;-90
2022/12/17 14:03:33;;;;;;;91.57;49.78;;;;;;;-2.70;100.00;102460.56;6147606;23;20101;-90
2022/12/17 14:05:58;;;;;;;92.07;50.60;;;;;;;-2.76;100.00;102450.84;6147814;23;20092;-91
2022/12/17 14:08:27;;;;;;;91.70;49.45;;;;;;;-2.77;100.00;102456.88;6179262;23;20066;-93
2022/12/17 14:13:40;;;;;;;96.45;52.67;;;;;;;-2.91;100.00;102446.88;6222685;23;20023;-89
2022/12/17 14:16:06;;;;;;;99.70;52.42;;;;;;;-2.93;100.00;102446.81;6233534;22;19993;-90
2022/12/17 14:18:32;;;;;;;101.63;54.10;;;;;;;-3.01;100.00;102450.91;6233091;22;20011;-92
2022/12/17 14:20:57;;;;;;;100.03;51.67;;;;;;;-3.04;100.00;102456.94;6229872;22;20056;-92
2022/12/17 14:23:27;;;;;;;98.20;52.10;;;;;;;-3.08;100.00;102456.78;6229139;22;20012;-92
2022/12/17 14:25:53;;;;;;;99.65;51.33;;;;;;;-3.06;100.00;102445.56;6229178;22;19993;-91
2022/12/17 14:28:43;;;;;;;95.50;49.42;;;;;;;-2.93;100.00;102456.34;6221986;22;20070;-90
2022/12/17 14:31:18;;;;;;;100.30;52.45;;;;;;;-2.97;100.00;102454.50;6222835;22;20013;-90
2022/12/17 14:33:44;;;;;;;96.72;50.38;;;;;;;-3.05;100.00;102459.50;6223676;23;20020;-92
2022/12/17 14:36:20;;;;;;;99.88;51.20;;;;;;;-3.11;100.00;102460.19;6225493;22;20012;-92
2022/12/17 14:38:53;;;;;;;101.55;50.28;;;;;;;-3.09;100.00;102468.94;6220247;22;20009;-93
2022/12/17 14:44:04;;;;;;;104.75;52.30;;;;;;;-3.11;100.00;102460.19;6218083;23;20014;-90
2022/12/17 14:46:31;;;;;;;104.43;51.17;;;;;;;-3.17;100.00;102462.59;6211805;23;20076;-91
2022/12/17 14:48:59;;;;;;;111.72;54.17;;;;;;;-3.09;100.00;102476.75;6210438;23;19993;-89
2022/12/17 14:51:32;;;;;;;107.78;54.13;;;;;;;-3.05;100.00;102483.81;6212550;22;20354;-90
2022/12/17 14:54:17;;;;;;;110.33;53.57;;;;;;;-3.01;100.00;102487.38;6213037;23;20092;-91
2022/12/17 14:56:43;;;;;;;112.38;56.33;;;;;;;-3.06;100.00;102482.03;6211887;23;20238;-89
2022/12/17 14:59:22;;;;;;;108.15;55.55;;;;;;;-3.08;100.00;102482.84;6209802;23;20008;-90
2022/12/17 15:01:48;;;;;;;112.40;54.17;;;;;;;-3.16;100.00;102484.31;6210439;23;20497;-90
2022/12/17 15:04:15;;;;;;;112.00;56.90;;;;;;;-3.26;100.00;102478.81;6210094;23;20024;-93
2022/12/17 15:06:40;;;;;;;120.75;60.40;;;;;;;-3.22;100.00;102485.00;6209898;23;20083;-92
2022/12/17 15:09:06;;;;;;;121.40;62.28;;;;;;;-3.22;100.00;102492.81;6209725;23;20095;-91
2022/12/17 15:11:31;;;;;;;121.15;58.28;;;;;;;-3.29;100.00;102488.25;6210015;23;20012;-90
2022/12/17 15:13:57;;;;;;;119.38;58.55;;;;;;;-3.36;100.00;102476.75;6212676;23;20016;-91
2022/12/17 15:16:22;;;;;;;118.78;60.28;;;;;;;-3.27;100.00;102495.25;6209936;23;19992;-88
2022/12/17 15:18:48;;;;;;;120.93;58.10;;;;;;;-3.41;100.00;102469.63;6209278;22;20001;-91
2022/12/17 15:21:15;;;;;;;120.88;58.20;;;;;;;-3.52;100.00;102469.28;6209212;23;20028;-93
2022/12/17 15:23:43;;;;;;;115.53;55.75;;;;;;;-3.37;100.00;102500.13;6210934;23;20311;-93
2022/12/17 15:26:09;;;;;;;115.13;56.35;;;;;;;-3.40;100.00;102500.91;6216247;23;20074;-90
2022/12/17 15:28:34;;;;;;;113.55;57.33;;;;;;;-3.35;100.00;102503.66;6217972;23;20009;-93
2022/12/17 15:31:00;;;;;;;113.72;57.75;;;;;;;-3.37;100.00;102515.75;6213963;22;20011;-91
2022/12/17 15:33:25;;;;;;;106.95;55.35;;;;;;;-3.37;100.00;102516.66;6212537;23;20481;-90
2022/12/17 15:35:51;;;;;;;114.18;55.22;;;;;;;-3.44;100.00;102504.25;6212060;23;20004;-93
2022/12/17 15:38:16;;;;;;;106.03;55.20;;;;;;;-3.45;100.00;102506.81;6211567;23;20445;-91
2022/12/17 15:40:41;;;;;;;99.65;51.22;;;;;;;-3.38;100.00;102519.22;6210909;23;20008;-93
2022/12/17 15:43:11;;;;;;;101.72;52.53;;;;;;;-3.41;100.00;102514.78;6210928;23;20461;-91
2022/12/17 15:45:37;;;;;;;105.57;53.15;;;;;;;-3.47;100.00;102519.75;6210851;23;20016;-90
2022/12/17 15:48:03;;;;;;;106.32;54.08;;;;;;;-3.47;100.00;102519.75;6214814;23;20013;-92
2022/12/17 15:50:28;;;;;;;103.47;53.25;;;;;;;-3.45;100.00;102517.22;6212170;23;20072;-92
2022/12/17 15:52:54;;;;;;;113.20;55.08;;;;;;;-3.46;100.00;102525.88;6208824;23;20029;-92
2022/12/17 15:55:19;;;;;;;114.30;56.22;;;;;;;-3.66;100.00;102494.84;6210799;22;20090;-91
2022/12/17 15:57:44;;;;;;;107.03;53.47;;;;;;;-3.55;100.00;102524.72;6205529;23;20008;-91
2022/12/17 16:00:10;;;;;;;105.13;52.83;;;;;;;-3.62;100.00;102519.25;6208998;22;20017;-90
2022/12/17 16:02:36;;;;;;;104.28;52.13;;;;;;;-3.61;100.00;102523.63;6209593;23;20004;-93
2022/12/17 16:05:01;;;;;;;104.68;52.03;;;;;;;-3.64;100.00;102540.00;6204391;23;20008;-91
2022/12/17 16:07:26;;;;;;;102.80;53.95;;;;;;;-3.76;100.00;102531.81;6208113;23;20051;-91
2022/12/17 16:09:52;;;;;;;105.25;52.42;;;;;;;-3.77;100.00;102543.91;6209637;23;20296;-90
2022/12/17 16:12:17;;;;;;;105.85;50.75;;;;;;;-3.81;100.00;102541.16;6204355;23;20009;-92
2022/12/17 16:14:43;;;;;;;101.22;51.72;;;;;;;-3.90;100.00;102520.91;6206783;23;20008;-90
2022/12/17 16:17:08;;;;;;;105.95;52.28;;;;;;;-3.90;100.00;102523.50;6205957;23;20011;-90
2022/12/17 16:19:33;;;;;;;103.35;51.97;;;;;;;-3.87;100.00;102528.81;6207527;23;20012;-89
2022/12/17 16:21:59;;;;;;;104.18;51.22;;;;;;;-3.97;100.00;102525.81;6209610;23;20000;-89
2022/12/17 16:24:24;;;;;;;97.65;48.88;;;;;;;-3.95;100.00;102518.97;6211815;23;20004;-94
2022/12/17 16:26:49;;;;;;;105.75;52.60;;;;;;;-3.95;100.00;102531.97;6209682;23;20012;-92
2022/12/17 16:29:15;;;;;;;112.45;52.25;;;;;;;-3.95;100.00;102538.06;6213011;23;20043;-86
2022/12/17 16:31:40;;;;;;;94.82;49.53;;;;;;;-4.01;100.00;102535.25;6209148;23;20039;-87
2022/12/17 16:34:10;;;;;;;105.60;50.83;;;;;;;-4.11;100.00;102539.22;6211295;23;20012;-88
2022/12/17 16:36:35;;;;;;;102.40;51.33;;;;;;;-4.06;100.00;102545.47;6209419;23;20331;-90
2022/12/17 16:39:02;;;;;;;102.05;49.15;;;;;;;-4.08;100.00;102541.06;6215821;23;20011;-92
2022/12/17 16:41:27;;;;;;;100.47;49.65;;;;;;;-4.19;100.00;102538.06;6215088;23;20004;-89
2022/12/17 16:43:52;;;;;;;93.47;47.80;;;;;;;-4.14;100.00;102543.44;6215862;23;20008;-90
2022/12/17 16:46:31;;;;;;;94.32;46.58;;;;;;;-4.11;100.00;102549.63;6217895;23;20013;-88
2022/12/17 16:49:12;;;;;;;99.57;48.05;;;;;;;-4.13;100.00;102527.00;6220072;23;20019;-91
2022/12/17 16:51:38;;;;;;;99.28;49.95;;;;;;;-4.07;100.00;102546.31;6215497;23;20000;-89
2022/12/17 16:54:12;;;;;;;96.50;48.55;;;;;;;-4.12;100.00;102550.47;6228913;23;20059;-89
2022/12/17 16:56:37;;;;;;;99.63;48.28;;;;;;;-4.06;100.00;102555.88;6226776;23;20326;-91
2022/12/17 16:59:04;;;;;;;98.30;50.33;;;;;;;-4.02;100.00;102559.47;6225144;22;20026;-90
2022/12/17 17:01:30;;;;;;;103.80;52.10;;;;;;;-4.09;100.00;102550.59;6223454;23;20019;-87
2022/12/17 17:03:55;;;;;;;101.28;51.47;;;;;;;-4.03;100.00;102552.50;6229112;23;20032;-92
2022/12/17 17:06:21;;;;;;;100.53;51.40;;;;;;;-4.09;100.00;102536.69;6232320;22;20013;-91
2022/12/17 17:08:47;;;;;;;108.55;54.65;;;;;;;-4.04;100.00;102550.75;6230379;23;20013;-90
2022/12/17 17:11:20;;;;;;;108.70;52.80;;;;;;;-4.12;100.00;102521.84;6227949;23;20000;-88
2022/12/17 17:13:49;;;;;;;104.88;53.05;;;;;;;-3.98;100.00;102545.75;6211296;23;20423;-89
2022/12/17 17:16:15;;;;;;;101.47;49.85;;;;;;;-3.98;100.00;102552.66;6209264;22;20005;-88
2022/12/17 17:18:41;;;;;;;98.43;48.72;;;;;;;-4.00;100.00;102547.44;6209185;23;20001;-93
2022/12/17 17:21:19;;;;;;;94.43;48.70;;;;;;;-4.01;100.00;102540.47;6213229;23;20016;-92
2022/12/17 17:23:46;;;;;;;99.35;50.58;;;;;;;-3.96;100.00;102553.63;6216528;23;20035;-92
2022/12/17 17:26:12;;;;;;;99.22;49.85;;;;;;;-3.95;100.00;102560.59;6214513;22;20063;-95
2022/12/17 17:28:38;;;;;;;93.70;47.25;;;;;;;-4.02;100.00;102560.34;6214418;23;20464;-92
2022/12/17 17:31:07;;;;;;;96.28;47.75;;;;;;;-4.18;100.00;102557.13;6213333;23;20005;-96
2022/12/17 17:33:35;;;;;;;98.55;44.13;;;;;;;-4.35;100.00;102554.78;6215561;23;20037;-92
2022/12/17 17:36:09;;;;;;;88.10;45.13;;;;;;;-4.44;100.00;102562.25;6214710;23;20004;-93
2022/12/17 17:38:36;;;;;;;90.32;46.65;;;;;;;-4.40;100.00;102576.25;6213235;23;20203;-93
2022/12/17 17:41:03;;;;;;;92.70;47.17;;;;;;;-4.41;100.00;102579.69;6214535;23;20086;-91
2022/12/17 17:43:28;;;;;;;84.15;43.70;;;;;;;-4.41;100.00;102577.09;6209503;23;20245;-91
2022/12/17 17:46:08;;;;;;;80.43;42.90;;;;;;;-4.44;100.00;102558.78;6209084;23;20366;-91
2022/12/17 17:48:34;;;;;;;85.78;43.30;;;;;;;-4.49;100.00;102560.31;6211949;23;20299;-93
2022/12/17 17:51:02;;;;;;;81.57;44.70;;;;;;;-4.39;100.00;102578.94;6213040;23;20004;-91
2022/12/17 17:53:28;;;;;;;88.70;45.10;;;;;;;-4.40;100.00;102578.84;6212696;22;20036;-94
2022/12/17 17:55:53;;;;;;;85.97;44.35;;;;;;;-4.46;100.00;102570.84;6216448;22;20020;-94
2022/12/17 17:58:19;;;;;;;87.78;45.00;;;;;;;-4.51;100.00;102561.16;6211375;23;19997;-92
2022/12/17 18:00:45;;;;;;;92.70;47.60;;;;;;;-4.41;100.00;102564.09;6212274;23;20135;-91
2022/12/17 18:03:10;;;;;;;94.30;48.22;;;;;;;-4.44;100.00;102569.16;6211474;22;20058;-93
2022/12/17 18:05:37;;;;;;;97.53;48.30;;;;;;;-4.46;100.00;102563.94;6211991;23;20095;-96
2022/12/17 18:08:02;;;;;;;109.05;49.97;;;;;;;-4.52;100.00;102567.16;6219106;23;20005;-92
2022/12/17 18:10:28;;;;;;;96.18;49.92;;;;;;;-4.44;100.00;102563.97;6213795;23;20019;-92
2022/12/17 18:15:37;;;;;;;;;;;;;;;-4.25;100.00;102574.25;6218799;23;20032;-93
2022/12/17 18:18:03;;;;;;;95.70;47.92;;;;;;;-4.35;100.00;102575.59;6210559;23;19923;-91
2022/12/17 18:20:28;;;;;;;101.53;50.55;;;;;;;-4.35;100.00;102564.31;6214073;23;19984;-90
2022/12/17 18:22:53;;;;;;;98.85;50.80;;;;;;;-4.42;100.00;102557.13;6211649;23;20358;-94
2022/12/17 18:25:18;;;;;;;101.43;50.70;;;;;;;-4.41;100.00;102554.59;6209818;23;20027;-92
2022/12/17 18:27:44;;;;;;;100.45;51.47;;;;;;;-4.39;100.00;102567.63;6217223;23;20015;-95
2022/12/17 18:30:10;;;;;;;100.88;51.95;;;;;;;-4.35;100.00;102570.41;6214746;23;20016;-95
2022/12/17 18:32:35;;;;;;;104.95;52.17;;;;;;;-4.46;100.00;102545.72;6211068;23;20008;-92
2022/12/17 18:35:00;;;;;;;106.68;53.38;;;;;;;-4.34;100.00;102572.19;6209386;23;20032;-90
2022/12/17 18:37:26;;;;;;;104.72;55.75;;;;;;;-4.31;100.00;102574.00;6210087;23;19996;-90
2022/12/17 18:39:51;;;;;;;104.50;52.92;;;;;;;-4.41;100.00;102545.91;6209815;23;20436;-90
2022/12/17 18:45:01;;;;;;;104.10;54.45;;;;;;;-4.31;100.00;102576.59;6208827;23;20047;-92
2022/12/17 18:47:29;;;;;;;108.70;55.92;;;;;;;-4.39;100.00;102583.22;6215820;23;20012;-91
2022/12/17 18:49:54;;;;;;;119.68;52.85;;;;;;;-4.51;100.00;102573.28;6215309;23;20012;-91
2022/12/17 18:52:22;;;;;;;110.13;52.83;;;;;;;-4.68;100.00;102556.09;6208285;23;20004;-92
2022/12/17 18:54:48;;;;;;;101.80;51.63;;;;;;;-4.76;100.00;102563.63;6205599;23;20004;-92
2022/12/17 18:57:13;;;;;;;108.70;54.13;;;;;;;-4.62;100.00;102588.44;6208339;23;20011;-92
2022/12/17 18:59:39;;;;;;;104.68;49.53;;;;;;;-4.68;100.00;102580.41;6207676;23;19989;-89
2022/12/17 19:02:08;;;;;;;106.32;49.88;;;;;;;-4.73;100.00;102579.31;6205797;23;20410;-92
2022/12/17 19:04:34;;;;;;;104.97;52.78;;;;;;;-4.69;100.00;102578.59;6208302;23;20015;-93
2022/12/17 19:06:59;;;;;;;104.10;52.55;;;;;;;-4.60;100.00;102586.78;6208502;23;20032;-94
2022/12/17 19:09:35;;;;;;;107.38;53.17;;;;;;;-4.63;100.00;102590.97;6207181;23;20111;-92
2022/12/17 19:12:03;;;;;;;94.88;50.10;;;;;;;-4.66;100.00;102588.25;6211031;23;20019;-93
2022/12/17 19:14:28;;;;;;;106.65;50.28;;;;;;;-4.81;100.00;102583.31;6211884;23;20012;-96
2022/12/17 19:16:56;;;;;;;99.93;49.03;;;;;;;-4.77;100.00;102586.09;6211570;23;20815;-93
2022/12/17 19:19:22;;;;;;;99.78;50.25;;;;;;;-4.90;100.00;102576.06;6214612;23;20004;-90
2022/12/17 19:21:48;;;;;;;102.82;51.75;;;;;;;-4.88;100.00;102581.31;6214396;23;20016;-93
2022/12/17 19:24:16;;;;;;;109.95;52.13;;;;;;;-4.91;100.00;102597.66;6217476;23;20064;-91
2022/12/17 19:26:42;;;;;;;101.13;51.45;;;;;;;-4.90;100.00;102601.13;6223542;22;20005;-91
2022/12/17 19:29:09;;;;;;;106.38;51.85;;;;;;;-4.92;100.00;102606.28;6227715;23;20013;-94
2022/12/17 19:31:35;;;;;;;104.90;49.67;;;;;;;-4.97;100.00;102610.41;6228628;23;20043;-92
2022/12/17 19:34:03;;;;;;;98.95;48.97;;;;;;;-5.07;100.00;102611.72;6232623;22;20016;-95
2022/12/17 19:36:31;;;;;;;90.25;49.42;;;;;;;-5.06;100.00;102615.19;6234725;22;20039;-94
2022/12/17 19:38:59;;;;;;;96.45;47.33;;;;;;;-5.08;100.00;102612.56;6234268;22;20000;-94
2022/12/17 19:41:26;;;;;;;94.85;50.97;;;;;;;-5.09;100.00;102613.38;6208978;23;20438;-92
2022/12/17 19:43:56;;;;;;;88.78;49.50;;;;;;;-5.12;100.00;102621.03;6212084;22;20009;-92
2022/12/17 19:46:22;;;;;;;101.22;51.95;;;;;;;-5.19;100.00;102603.44;6208179;23;20013;-92
2022/12/17 19:48:48;;;;;;;93.88;50.22;;;;;;;-5.11;100.00;102615.00;6212680;22;20148;-92
2022/12/17 19:51:15;;;;;;;98.50;50.53;;;;;;;-5.17;100.00;102606.09;6215137;23;20019;-90
2022/12/17 19:53:42;;;;;;;103.88;51.13;;;;;;;-5.14;100.00;102608.81;6210335;23;20004;-90
2022/12/17 19:56:14;;;;;;;102.78;50.97;;;;;;;-5.27;100.00;102590.16;6211125;22;20083;-94
2022/12/17 19:58:41;;;;;;;91.05;49.33;;;;;;;-5.07;100.00;102609.13;6210320;22;20015;-93
2022/12/17 20:01:12;;;;;;;101.70;52.55;;;;;;;-5.06;100.00;102605.72;6209147;23;20007;-92
2022/12/17 20:03:39;;;;;;;94.85;49.58;;;;;;;-5.06;100.00;102597.94;6208786;23;20342;-93
2022/12/17 20:06:05;;;;;;;98.50;50.97;;;;;;;-5.07;100.00;102614.31;6210402;23;20036;-94
2022/12/17 20:08:31;;;;;;;91.72;47.25;;;;;;;-5.03;100.00;102608.44;6209982;22;20013;-95
2022/12/17 20:10:58;;;;;;;87.53;46.80;;;;;;;-5.01;100.00;102617.19;6211192;22;20043;-92
2022/12/17 20:13:24;;;;;;;81.05;44.85;;;;;;;-5.03;100.00;102618.81;6213761;23;20005;-93
2022/12/17 20:16:01;;;;;;;90.70;46.72;;;;;;;-5.10;100.00;102611.63;6210635;23;20005;-93
2022/12/17 20:18:26;;;;;;;87.55;46.17;;;;;;;-5.12;100.00;102613.25;6208826;23;20172;-94
2022/12/17 20:21:00;;;;;;;93.90;49.25;;;;;;;-5.12;100.00;102630.53;6212491;23;20881;-93
2022/12/17 20:23:25;;;;;;;95.45;49.90;;;;;;;-5.13;100.00;102627.06;6210224;23;20413;-92
2022/12/17 20:26:00;;;;;;;93.95;49.42;;;;;;;-5.07;100.00;102642.00;6210393;22;20005;-92
2022/12/17 20:28:26;;;;;;;89.82;46.10;;;;;;;-5.12;100.00;102646.13;6219926;23;20018;-91
2022/12/17 20:30:53;;;;;;;87.07;46.78;;;;;;;-5.20;100.00;102647.50;6215630;23;20004;-92
2022/12/17 20:33:18;;;;;;;88.05;46.00;;;;;;;-5.24;100.00;102643.88;6211894;23;20418;-92
2022/12/17 20:35:44;;;;;;;84.78;44.95;;;;;;;-5.24;100.00;102630.03;6214404;23;20012;-92
2022/12/17 20:38:09;;;;;;;73.80;43.38;;;;;;;-5.27;100.00;102625.56;6214174;23;20422;-96
2022/12/17 20:40:38;;;;;;;76.28;43.80;;;;;;;-5.22;100.00;102634.47;6212256;23;20327;-91
2022/12/17 20:43:03;;;;;;;83.70;46.40;;;;;;;-5.33;100.00;102612.34;6211807;23;19996;-92
2022/12/17 20:45:28;;;;;;;83.95;45.33;;;;;;;-5.33;100.00;102622.75;6207938;23;20011;-90
2022/12/17 20:47:54;;;;;;;82.75;45.55;;;;;;;-5.32;100.00;102630.56;6210322;23;20008;-89
2022/12/17 20:50:19;;;;;;;86.43;46.08;;;;;;;-5.44;100.00;102616.19;6208507;23;20011;-92
2022/12/17 20:52:44;;;;;;;91.50;47.13;;;;;;;-5.52;100.00;102616.78;6210282;23;20017;-93
2022/12/17 20:55:10;;;;;;;86.22;47.45;;;;;;;-5.42;100.00;102617.16;6211786;23;20034;-93
2022/12/17 20:57:35;;;;;;;90.63;47.50;;;;;;;-5.53;100.00;102612.38;6210342;23;20000;-93
2022/12/17 21:00:00;;;;;;;88.35;50.50;;;;;;;-5.46;100.00;102613.53;6211080;23;20012;-90
2022/12/17 21:02:26;;;;;;;94.78;52.10;;;;;;;-5.41;100.00;102612.03;6207397;23;20015;-91
2022/12/17 21:04:51;;;;;;;94.43;50.83;;;;;;;-5.55;100.00;102598.47;6208242;23;20449;-89
2022/12/17 21:07:16;;;;;;;88.47;47.88;;;;;;;-5.58;100.00;102602.63;6207224;23;20062;-91
2022/12/17 21:09:42;;;;;;;91.80;49.60;;;;;;;-5.52;100.00;102623.63;6208941;23;20000;-89
2022/12/17 21:12:08;;;;;;;84.85;46.70;;;;;;;-5.56;100.00;102630.44;6211606;23;20066;-89
2022/12/17 21:14:33;;;;;;;83.75;47.88;;;;;;;-5.57;100.00;102630.34;6211053;23;20005;-90
2022/12/17 21:16:59;;;;;;;77.60;44.92;;;;;;;-5.65;100.00;102627.41;6210758;23;20585;-90
2022/12/17 21:19:26;;;;;;;78.95;45.97;;;;;;;-5.65;100.00;102627.41;6215259;23;19999;-90
2022/12/17 21:21:51;;;;;;;77.95;46.05;;;;;;;-5.60;100.00;102630.19;6216493;23;20028;-92
2022/12/17 21:24:17;;;;;;;80.57;45.85;;;;;;;-5.66;100.00;102642.91;6216833;23;20015;-91
2022/12/17 21:26:43;;;;;;;78.55;45.55;;;;;;;-5.65;100.00;102642.97;6217886;23;20008;-90
2022/12/17 21:29:10;;;;;;;82.55;47.47;;;;;;;-5.69;100.00;102645.38;6221369;23;20036;-93
2022/12/17 21:31:39;;;;;;;75.90;44.67;;;;;;;-5.63;100.00;102646.53;6233489;22;20065;-95
2022/12/17 21:34:07;;;;;;;76.63;47.28;;;;;;;-5.64;100.00;102644.78;6235088;22;20060;-95
2022/12/17 21:36:33;;;;;;;79.70;46.22;;;;;;;-5.62;100.00;102655.19;6231463;23;20004;-95
2022/12/17 21:39:00;;;;;;;79.15;47.35;;;;;;;-5.70;100.00;102641.00;6229294;23;20016;-95
2022/12/17 21:41:30;;;;;;;81.80;47.83;;;;;;;-5.72;100.00;102640.94;6230582;23;20015;-96
2022/12/17 21:43:58;;;;;;;81.25;46.90;;;;;;;-5.81;100.00;102638.84;6229835;23;20019;-95
2022/12/17 21:46:27;;;;;;;81.32;48.20;;;;;;;-5.74;100.00;102644.28;6227751;23;20079;-94
2022/12/17 21:48:54;;;;;;;79.00;47.83;;;;;;;-5.73;100.00;102659.91;6230539;23;20281;-94
2022/12/17 21:51:20;;;;;;;81.47;47.20;;;;;;;-5.72;100.00;102651.31;6232880;23;20067;-93
2022/12/17 21:53:46;;;;;;;78.95;47.17;;;;;;;-5.83;100.00;102649.94;6225082;23;20036;-92
2022/12/17 21:56:14;;;;;;;79.50;47.47;;;;;;;-5.79;100.00;102655.34;6219576;22;20017;-94
2022/12/17 21:58:40;;;;;;;78.25;46.97;;;;;;;-5.78;100.00;102662.28;6230831;22;20052;-94
2022/12/17 22:01:13;;;;;;;89.07;51.38;;;;;;;-5.81;100.00;102659.59;6236030;22;19989;-94
2022/12/17 22:03:39;;;;;;;85.07;48.35;;;;;;;-5.92;100.00;102641.78;6235076;22;19997;-95
2022/12/17 22:06:10;;;;;;;85.68;50.63;;;;;;;-5.90;100.00;102659.16;6236509;22;20037;-93
2022/12/17 22:08:37;;;;;;;84.93;47.88;;;;;;;-5.91;100.00;102661.69;6233172;22;20035;-94
2022/12/17 22:11:08;;;;;;;82.85;48.38;;;;;;;-5.93;100.00;102660.78;6235072;22;20422;-94
2022/12/17 22:16:19;;;;;;;82.78;47.28;;;;;;;-6.09;100.00;102654.88;6215609;23;20599;-93
2022/12/17 22:18:44;;;;;;;82.93;48.50;;;;;;;-6.07;100.00;102654.94;6216309;22;20012;-93
2022/12/17 22:21:10;;;;;;;81.95;48.90;;;;;;;-6.08;100.00;102667.00;6223245;23;20034;-93
2022/12/17 22:23:35;;;;;;;73.80;45.10;;;;;;;-6.24;100.00;102648.09;6222986;23;20024;-94
2022/12/17 22:26:00;;;;;;;75.13;45.35;;;;;;;-6.22;100.00;102654.25;6218514;22;20438;-94
2022/12/17 22:28:26;;;;;;;78.15;46.28;;;;;;;-6.35;100.00;102648.50;6213914;22;20016;-93
2022/12/17 22:33:35;;;;;;;;;;;;;;;-6.23;100.00;102673.19;6215540;23;20019;-93
2022/12/17 22:36:01;;;;;;;84.93;47.80;;;;;;;-6.42;100.00;102661.06;6217015;23;19912;-92
2022/12/17 22:38:26;;;;;;;80.20;47.72;;;;;;;-6.37;100.00;102668.25;6214384;23;20433;-93
2022/12/17 22:40:52;;;;;;;59.88;24.70;;;;;;;-6.41;100.00;102671.50;6212579;23;20033;-96
2022/12/17 22:43:29;;;;;;;78.07;45.17;;;;;;;-6.52;100.00;102657.13;6210161;23;20027;-93
2022/12/17 22:45:59;;;;;;;76.43;45.90;;;;;;;-6.57;100.00;102656.91;6212111;23;20020;-94
2022/12/17 22:48:25;;;;;;;82.28;47.10;;;;;;;-6.52;100.00;102672.69;6210688;22;20023;-93
2022/12/17 22:50:50;;;;;;;53.88;23.63;;;;;;;-6.63;100.00;102661.81;6211821;23;20079;-92
2022/12/17 22:53:16;;;;;;;78.88;46.35;;;;;;;-6.73;100.00;102638.88;6210319;23;20304;-93
2022/12/17 22:55:41;;;;;;;77.43;43.83;;;;;;;-6.74;100.00;102646.56;6209398;23;20031;-94
2022/12/17 22:58:06;;;;;;;53.97;23.02;;;;;;;-6.68;100.00;102659.84;6211829;23;20012;-93
2022/12/17 23:00:34;;;;;;;82.63;47.72;;;;;;;-6.77;100.00;102657.69;6211600;23;20008;-93
2022/12/17 23:03:00;;;;;;;82.40;46.20;;;;;;;-6.70;100.00;102669.22;6210456;23;20004;-93
2022/12/17 23:05:27;;;;;;;80.13;46.35;;;;;;;-6.76;100.00;102656.88;6212519;23;20009;-94
2022/12/17 23:07:53;;;;;;;82.90;47.83;;;;;;;-6.81;100.00;102658.34;6213221;23;20048;-94
2022/12/17 23:10:19;;;;;;;80.72;46.15;;;;;;;-6.94;100.00;102648.19;6211938;23;20053;-93
2022/12/17 23:12:51;;;;;;;80.85;46.15;;;;;;;-6.86;100.00;102657.22;6209308;23;20038;-92
2022/12/17 23:15:29;;;;;;;85.47;46.75;;;;;;;-6.92;100.00;102646.56;6210436;23;20411;-93
2022/12/17 23:17:58;;;;;;;63.80;24.42;;;;;;;-6.92;100.00;102646.56;6212483;23;20004;-93
2022/12/17 23:20:25;;;;;;;82.95;46.85;;;;;;;-6.95;100.00;102647.28;6208738;23;20009;-93
2022/12/17 23:22:51;;;;;;;81.25;45.92;;;;;;;-6.97;100.00;102643.75;6210755;23;20000;-94
2022/12/17 23:25:16;;;;;;;80.43;47.13;;;;;;;-6.99;100.00;102639.31;6211954;23;20008;-94
2022/12/17 23:27:43;;;;;;;81.82;48.08;;;;;;;-7.05;100.00;102637.31;6213300;23;20065;-95
2022/12/17 23:30:09;;;;;;;79.68;46.88;;;;;;;-7.12;100.00;102623.16;6211620;23;19985;-95
2022/12/17 23:32:35;;;;;;;80.05;46.20;;;;;;;-7.08;100.00;102639.75;6210954;23;20009;-93
2022/12/17 23:35:01;;;;;;;76.68;46.50;;;;;;;-7.19;100.00;102623.69;6213294;22;20104;-95
2022/12/17 23:37:26;;;;;;;83.32;47.45;;;;;;;-7.22;100.00;102631.31;6212212;23;20004;-92
2022/12/17 23:39:52;;;;;;;84.72;48.08;;;;;;;-7.15;100.00;102655.75;6211653;23;20454;-92
2022/12/17 23:42:17;;;;;;;56.35;22.77;;;;;;;-7.20;100.00;102646.88;6210857;23;20004;-93
2022/12/17 23:44:43;;;;;;;82.78;49.03;;;;;;;-7.18;100.00;102645.28;6216721;23;20068;-93
2022/12/17 23:47:08;;;;;;;82.75;47.90;;;;;;;-7.26;100.00;102634.53;6221580;22;20091;-93
2022/12/17 23:49:33;;;;;;;58.45;24.08;;;;;;;-7.35;100.00;102615.97;6212285;23;20015;-92
2022/12/17 23:51:59;;;;;;;79.00;47.25;;;;;;;-7.23;100.00;102637.28;6216283;23;20007;-94
2022/12/17 23:54:24;;;;;;;79.45;47.58;;;;;;;-7.27;100.00;102641.41;6213641;23;20381;-92
2022/12/17 23:56:50;;;;;;;79.75;47.22;;;;;;;-7.31;100.00;102641.19;6216037;23;20008;-91
2022/12/17 23:59:15;;;;;;;80.07;47.30;;;;;;;-7.28;100.00;102646.50;6216762;23;20007;-92
